Port Hope, Michigan
Current Conditions -  °F | °C
As of 6:58 AM on Thursday 23 Oct 2014 (Local Time) from KBAX Reporting Station
Haze Haze  
Wind Chill: 26°   Ceiling: 200
Heat Index: 26°   Visibility: 5mi
Dew Point: 26°   Wind: 0mph
Humidity: 100%   Direction: NA
Pressure: 30.25"   Gusts: NA
Location:  43.94°N, 82.71°W
Report Text: KBAX 231058Z AUTO 00000KT 5SM BR OVC002 M03/M03 A3025 RMK AO2 T10351035
Loading
Personal Weather Stations






























Interactive Weather Map
Tropical Storm Tracking
New forecast layout! Learn more

10-Day Weather Forecast

Advertisements
Track Severe Weather on mobile